Preisvergleich
Suchen Sie bei den großen Preisvergleich Portalen gleichzeitig! 


Sitemap34

20.6.2024 2:02

In den Sitemaps finden Sie im Meta-Preisvergleich häufig gefragte Suchworte sortiert nach der Anzahl der Anfragen.

Anfragen Suchwort Ergebnisse Datum Quellen
9festool sys 3 m 1372252024-05-23 00:07:0121
9adidas performance laufschuh supernova stride1672024-05-22 00:07:0121
9adidas performance laufschuh 4dfwd1622024-05-22 00:07:0121
9adidas performance trainingsschuh everyset812024-05-23 00:07:0121
9seilzug bis 800kg622024-05-22 00:07:0121
9ugreen usb c9902024-05-23 00:07:0121
9aiv cinch1172024-05-23 00:07:0121
9leatt mtb enduro6312024-05-23 00:07:0121
9medienpädagogik4492024-05-23 00:07:0121
9adidas sportswear sneaker ultraboost1772024-05-24 00:07:0121
9kopfhörer bluetooth motorradhelm2152024-05-24 00:07:0121
9sneakers gr 43 schwarz2172024-05-25 00:07:0121
9deutschland nihonto club152024-06-19 00:07:0121
9notebook leder 161412024-05-26 00:07:0121
9njm2073d832024-05-27 00:07:0122
9z fold galaxy7732024-05-28 00:07:0121
9heimkino beamer lumen6452024-05-28 00:07:0121
9roeckl iseler2882024-05-28 00:07:0121
9hifi verstärker denon2052024-06-02 00:07:0121
9adidas sportswear sneaker katana1712024-05-29 00:07:0121
9bindedraht ummantelt2402024-05-29 00:07:0121
9maisons du monde1672024-05-30 00:07:0121
9asics laufschuh gel-venture 81632024-05-30 00:07:0121
9kabelmanagement box3742024-05-30 00:07:0121
9doppelleine hund4622024-05-31 00:07:0221
9asics sportstyle sneaker gel-11301762024-05-31 00:07:0221
9hohlraumdübel m62852024-06-01 00:07:0121
9braun 9pro 94m2372024-06-02 00:07:0121
9hey dude 414832024-06-17 00:07:0121
9medicus slipper2042024-06-03 00:07:0121
9skechers sport summit7242024-06-03 00:07:0121
9braun scherkopf series 92s742024-06-03 00:07:0121
9fila sneaker fila lusso1702024-06-04 00:07:0121
9fold z7912024-06-05 00:07:0121
9brain master2622024-06-05 00:07:0121
9kunststoff schwert2842024-06-05 00:07:0121
9604xl kompatibel2372024-06-06 00:07:0121
9stoßdämpfer mercedes w2112262024-06-06 00:07:0121
9feder hinten vectra c caravan1292024-06-06 00:07:0121
9qidi x-max3322024-06-17 00:07:0121
9fahrwerksfeder hinten vectra c caravan1372024-06-06 00:07:0121
9metabo kt 66 bl1822024-06-17 00:07:0121
9lacoste sneaker linetrack1622024-06-07 00:07:0121
9lacoste badesandale croco1672024-06-07 00:07:0121
9elektriker set8872024-06-08 00:07:0121
9autoaufkleber panther1702024-06-08 00:07:0121
9merrell wanderschuh claypool1792024-06-08 00:07:0121
9drehmomentschrauber micro click592024-06-10 00:07:0121
9podcast mikrofon set2932024-06-09 00:07:0121
9docking station thunderbolt 45332024-06-10 00:07:0121
9wohnzimmertisch eckig5612024-06-11 00:07:0121
9new balance laufschuh m6801732024-06-11 00:07:0121
9punktschweißgerät 11000mah902024-06-12 00:07:0121
9nike fitnessschuh zoom bella1732024-06-12 00:07:0121
9nike sportswear sneaker court royale1632024-06-13 00:07:0221
9galaxy tab s9 256 gb wifi1692024-06-16 00:07:0221
9toki8982024-06-13 00:07:0221
9uhrenarmband strap 18mm3402024-06-13 00:07:0221
9woodfire ninja3172024-06-14 00:07:0121
9motorrad lederjacke herren5872024-06-16 00:07:0221
9samsung fold z 55262024-06-17 00:07:0121
9twist line intenso1782024-06-17 00:07:0121
9cherry kc 1000 sc tastatur2022024-06-19 00:07:0121
9wolters active pro comfort4132024-06-19 00:07:0121
9reebok laufschuh floatzig1682024-06-20 00:07:0121
9reebok laufschuh lavante1722024-06-20 00:07:0121
9reebok classic sneaker gl10001802024-06-20 00:07:0121
8busch-jaeger 2511-212792024-06-12 00:07:0121
8agria 3100272024-05-15 00:07:0121
8haribo tropi frutti592024-06-12 00:07:0121
8air force 1 schwarz6852024-05-14 00:07:0121
8silberbesteck 925662024-05-18 00:07:0121
8sorbitol3682024-05-24 00:07:0120
8spalding basketballkorb272024-05-13 00:07:0220
8akku haartrockner1742024-06-19 00:07:0121
8fiskars rosenschere592024-05-30 00:07:0121
8das neue buch vom leben auf dem lande492024-06-13 00:07:0221
8eragon drachenreiter3072024-05-22 00:07:0121
8daddario ej26112024-05-25 00:07:0121
8holzstar drechselbank1332024-05-17 00:07:0121
8sigel lp795502024-05-24 00:07:0121
8elmex spülung1292024-06-04 00:07:0121
8allure homme edition blanche692024-05-27 00:07:0121
8nokia 5710802024-06-10 00:07:0121
8adidas spezial schwarz 45182024-05-24 00:07:0119
8nikon sportstar ex 10x25332024-05-25 00:07:0120
8a3 druckerpapier3542024-06-13 00:07:0221
8wolf 3200e402024-05-31 00:07:0221
8schutzkappe gasflasche632024-05-16 00:07:0121
8compo duaxo rosen pilz-frei1112024-06-15 00:07:0121
8smarthphone392024-06-06 00:07:0121
8emsa samba grün822024-06-03 00:07:0121
8sonax sx multistar412024-06-05 00:07:0121
8redback usbbk492024-06-05 00:07:0121
8displayportkabel 2m262024-05-17 00:07:0120
8galaxy z10252024-05-26 00:07:0121
8elektrolyte7902024-06-03 00:07:0121
8solardusche 35 liter4312024-06-01 00:07:0121
8teknetics t2182024-05-28 00:07:0121
8schlagball 80g312024-06-08 00:07:0121
8krups pixi2272024-05-24 00:07:0121
8kunert richard2692024-05-29 00:07:0121
8medela brusternährungsset352024-05-15 00:07:0120
8kinvara 146702024-06-11 00:07:0121
8ecopack 131152024-06-01 00:07:0121
8dell latitude 54302462024-06-11 00:07:0121
8kombipack series 72182024-05-16 00:07:0121
8alb linsen312024-05-19 00:07:0120
8megaperls color802024-05-12 00:07:0121
8j00020a0502242024-06-06 00:07:0121
8küpper gehrungssäge perfekt iii302024-05-16 00:07:0121
8beurer bf7312024-05-28 00:07:0121
8weber eh kupplung122024-05-19 00:07:0121
8edelstahl spray7692024-06-07 00:07:0121
8ray-ban aviator rb30255542024-06-04 00:07:0121
8total quartz 9000 energy 5w-40 5 l2162024-05-22 00:07:0121
8sunny boy smart energy292024-06-02 00:07:0121
8dallmayr prodomo 500g gemahlen612024-06-08 00:07:0121
8ponche caballero142024-06-04 00:07:0121
8zv572372024-06-01 00:07:0121
8intex 68624532024-06-20 00:07:0121
8biofinity multifocal 64752024-05-30 00:07:0121
8trianon9222024-06-02 00:07:0121
8knauf autol112024-06-12 00:07:0121
8drechselmeister302024-06-04 00:07:0121
8portasol propiezo 7582024-06-12 00:07:0121
8protefix haft-creme extra-stark952024-05-22 00:07:0121
8superlux hd-681 evo82024-06-07 00:07:0120
8würth kniekissen592024-06-09 00:07:0121
8fischer etd1052024-05-27 00:07:0121
8makita bo5031j472024-05-19 00:07:0121
8makita pf0410592024-06-11 00:07:0121
8scuba 2 pooltester142024-06-12 00:07:0121
8arbeitstisch küche6532024-05-12 00:07:0121
8dekasyl ms 2662024-05-20 00:07:0121
8mks fd-7272024-05-23 00:07:0121
8roll up banner mit druck502024-06-05 00:07:0121
8vitalio start 1003102024-06-16 00:07:0221
8dahon vybe d782024-05-23 00:07:0121
8furikake1492024-06-04 00:07:0121
8berger koffergrill82024-05-20 00:07:0121
8ortlieb sport-roller plus792024-06-03 00:07:0121
8minilader1402024-06-17 00:07:0121
8hama dab antenne1372024-05-19 00:07:0121
8timezone miles tz582024-06-09 00:07:0121
8eberth 2200352024-06-19 00:07:0121
8flyer uproc 6122024-05-24 00:07:0121
8gardena 8906312024-05-18 00:07:0121
832phk4101112024-05-31 00:07:0221
8busch jaeger 6456-101522024-05-22 00:07:0121
8ei650rf funkrauchmelder172024-05-15 00:07:0121
8presonus eris 4.5462024-05-13 00:07:0221
8the north face duffel m1212024-05-26 00:07:0121
8citizen bn0150592024-05-19 00:07:0121
8basodexan softcreme 100352024-06-18 00:07:0120
8fireangel st-622712024-05-21 00:07:0121
8hww 6000 50462024-05-14 00:07:0121
8wolf gartenscheren1102024-06-16 00:07:0221
85411313450133702024-06-12 00:07:0121
8outsunny grillpavillon1102024-05-22 00:07:0121
8vitasprint b12 trinkfläschchen 30 st342024-06-13 00:07:0221
8h7 osram night breaker laser2162024-06-06 00:07:0121
8auerswald tsa-a b662024-05-24 00:07:0121
8kensington verimark1542024-05-20 00:07:0121
8tefal sw341b482024-06-06 00:07:0121
8atlantic radwachs202024-06-15 00:07:0121
8ecco 510522332024-06-13 00:07:0221
842v 3a ladegerät3332024-06-13 00:07:0221
8home manager 2.0822024-06-08 00:07:0120
8durgol entkalker 125ml1402024-06-19 00:07:0121
8vitamin b loges komplett862024-06-10 00:07:0121
8metallstab5142024-06-09 00:07:0121
8betaisodona salbe 100 g282024-05-17 00:07:0121
8fox bomber lt732024-06-08 00:07:0121
8weber spirit e-220462024-05-24 00:07:0121
8ale trikot damen2622024-06-10 00:07:0121
8razer goliathus chroma2412024-06-11 00:07:0121
8monzana trampolin 305842024-05-25 00:07:0121
8625369000452024-05-18 00:07:0121
8garett ace162024-05-25 00:07:0121
8samyang lens station1122024-06-03 00:07:0121
8schleifpapier 6010522024-05-15 00:07:0121
8makita em2651uh142024-06-14 00:07:0121
8makita duh523z mit akku652024-06-01 00:07:0121
8multimeter 99993182024-05-19 00:07:0121
8ey401mp112024-06-19 00:07:0121
8triton mof 0011492024-06-01 00:07:0121
8gdr 12v-1101042024-05-14 00:07:0121
8kärcher sp 5 dirt302024-05-20 00:07:0121
8flyer 7.231152024-05-17 00:07:0121
8pioneer ts-wx130ea662024-05-16 00:07:0121
8bosch akku teleskop heckenschere962024-06-10 00:07:0121
8behringer bdi222024-05-20 00:07:0121
8bosch standard charger502024-06-01 00:07:0121
8klarstein eismaschine1312024-06-10 00:07:0121
8roche toleraine172024-06-18 00:07:0120
8svs sb-3000272024-05-16 00:07:0120
8panasonic lumix lx 15262024-05-29 00:07:0121
8unold eismaschine 48880402024-05-20 00:07:0121
8haix bw kampfstiefel1462024-06-05 00:07:0121
8venta hygienedisk402024-06-17 00:07:0121
8shimano pd r80001732024-05-15 00:07:0120
8multimeter 199991212024-05-19 00:07:0121
8givenchy gentleman eau de parfum3712024-06-12 00:07:0121
8pilot road 4 180 55 zr 17862024-06-03 00:07:0121
8aqualibra 60302024-05-30 00:07:0121
8super mario deluxe switch3042024-06-09 00:07:0121
8205 55 r16 ganzjahresreifen hankook2032024-05-12 00:07:0121
8lenco cd-200652024-05-23 00:07:0121
8vaude performance 7 l332024-05-29 00:07:0121
8helly hansen daybreaker xl2112024-05-12 00:07:0121
8tannus armour1952024-05-21 00:07:0121
8wasser härte test3252024-06-07 00:07:0121
8puderzucker 10 kg352024-05-15 00:07:0121
8fujifilm h11232024-05-31 00:07:0221
8scottoiler öl742024-05-19 00:07:0120
8ergon sr pro1482024-06-01 00:07:0121
8r-up beste spannbettlaken2772024-06-08 00:07:0121
8wtw 84433132024-05-12 00:07:0121
8tfa venice732024-06-05 00:07:0121
8aarke carbonator ii wassersprudler edelstahl152024-06-07 00:07:0121
8sonnenblumenkerne geschält bruch 25 kg632024-05-16 00:07:0121
8makita dhs680zj452024-05-14 00:07:0121
8rinti 800g 24 x2402024-06-15 00:07:0121
8jülich-363852024-06-20 00:07:0121
8hmip-mod-ho242024-06-02 00:07:0121
8wd elements 8 tb1302024-06-06 00:07:0121
8joop wow 60912024-05-24 00:07:0120
8viair kompressor2522024-06-09 00:07:0121
8magpad532024-05-20 00:07:0121
8huawei e5785lh252024-06-17 00:07:0121
8hmipw-drs8122024-05-13 00:07:0221
8c13t34764010642024-05-16 00:07:0121
8worx wx550.9252024-05-27 00:07:0121
8felix 120x851102024-06-12 00:07:0121
8deumavan intimpflege 125ml92024-05-31 00:07:0221
8wiroflex stecksystem1132024-05-22 00:07:0121
8gaba 7501262024-06-08 00:07:0121
8fx-wsa30152024-05-27 00:07:0121
8wahoo fitness elemnt roam252024-05-26 00:07:0121
8everdure cube992024-05-30 00:07:0121
8zwilling enfinigy toaster1032024-06-13 00:07:0221
8constructa geschirrspüler unterbau192024-05-22 00:07:0121
8bosch universal chain 181722024-06-10 00:07:0121
8gardena aqua s2732024-05-15 00:07:0121
8tena men pants l2062024-06-06 00:07:0121
8ms225-53e672024-05-26 00:07:0121
8iphone 7 akku4042024-06-17 00:07:0121
8easyrotak 36-550632024-05-30 00:07:0121
8crespo al 213222024-05-21 00:07:0121
8cube kathmandu pro trapez592024-06-04 00:07:0121
8meindl tonale lady5272024-05-19 00:07:0121
8logitech side panel422024-05-24 00:07:0121
8rommelsbacher da900312024-06-06 00:07:0121
8noch 88308142024-05-29 00:07:0121
8powerbar powergel original1472024-06-01 00:07:0121
8a168wegg-1bef772024-05-27 00:07:0121
8liqui moly top tec 4200 5w-30 motoröl2992024-06-17 00:07:0121
8bell eliminator4102024-06-01 00:07:0121
8grünbeck sd23632024-05-14 00:07:0121
8smart tv 55 zoll 4k6042024-05-25 00:07:0123
8beurer maremed1192024-05-19 00:07:0121
8currex runpro med1142024-06-17 00:07:0121
8einhell te-cd 18 50 li-i bl702024-06-04 00:07:0121
8pib375fb1e662024-06-17 00:07:0121
8hk audio polar 12232024-06-13 00:07:0221
8the weight of melted snow102024-06-15 00:07:0121
8piko 51315122024-05-30 00:07:0120
8mcc9555dwc112024-06-17 00:07:0121
8ts63511082024-05-20 00:07:0120
8tv 65 zoll oled4422024-06-11 00:07:0121
8sennheiser hd560s482024-05-31 00:07:0221
811222324332024-06-04 00:07:0121
8bondex holzlasur für außen7552024-05-17 00:07:0121
8krups f30908652024-05-16 00:07:0121
8cherry mx board 3.0 s2712024-05-27 00:07:0121
8ksv36vldp442024-06-13 00:07:0221
8hrm-pro982024-06-11 00:07:0121
8behringer flow 8172024-06-19 00:07:0121
8airgoclean 170 e122024-06-20 00:07:0121
8surefeed futterautomat mikrochip892024-06-18 00:07:0121
8beurer stichheiler932024-05-22 00:07:0121
8odlo socken6482024-05-13 00:07:0221
8hario wasserkocher1152024-05-20 00:07:0121
8houe click schaukelstuhl922024-06-01 00:07:0121
8nukleotide562024-05-12 00:07:0121
8o2 homespot 5g112024-06-19 00:07:0121
8growzelt 100x100x200462024-05-26 00:07:0121
8dux18zx1842024-06-20 00:07:0121
8craftfull teleskopleiter cf-101a aluminium562024-06-02 00:07:0121
8dr hauschka reichhaltige maske112024-06-01 00:07:0121
8gi11vadc0472024-05-22 00:07:0121
8avm fritzbox 6660 cable282024-05-16 00:07:0121
8lawn sand1272024-05-16 00:07:0121
8weber connect1232024-05-31 00:07:0221
8gardena multibrause comfort1452024-06-05 00:07:0121
8yamaha psr sx1412024-06-02 00:07:0121
8fire hd 10 plus1332024-05-20 00:07:0121
8comfortel d-600502024-06-20 00:07:0121
8lorano pro 100 stück82024-06-13 00:07:0221
8bett1 100 2003092024-05-27 00:07:0121
8einhell akku 4ah twinpack292024-06-16 00:07:0221
8vitamin c kg8482024-05-29 00:07:0121
8fritz box ax4282024-06-09 00:07:0121
8mimoke1292024-05-30 00:07:0121
8galaxy watch 4 lte3152024-05-30 00:07:0121
8wasserfilter delonghi dlsc0024862024-05-15 00:07:0121
8secretlab titan evo112024-06-19 00:07:0121
8canon 545 546 xl2562024-05-12 00:07:0120
8eufy floodlight cam 2272024-05-15 00:07:0121
8gillette fusion 5 rasierklingen, 18 ersatzklingen122024-06-09 00:07:0121
anzahl 311 xml 311


Preisvergleich
Wichtige Information zu den Preisangaben: Alle Preise verstehen sich inklusive der gesetzlichen Mehrwertsteuer und gegebebenfalls zuzüglich Versandkosten. Zum Zeitpunkt des Kaufes ist der aktuell auf der Händlerseite angegebene Preis maßgeblich. Bitte beachten Sie, dass aus technischen Gründen zeitweise Abweichungen, des Preises, der Lieferbarkeit und der Versandkosten entstehen können.

Affiliate-Offenlegung: Wenn Sie auf dieser Website auf Links zu verschiedenen Händlern klicken und einen Kauf tätigen, kann dies dazu führen, dass diese Website eine Provision erhält. Zu den Partnerprogrammen und Partnerschaften gehört unter anderem das eBay Partner Network. Als Amazon-Partner verdienen wir an qualifizierten Verkäufen.
Impressum / Datenschutzerklärung     Presse     Shops    
Copyright © 2003-2024 MetaMind GmbH